Time;durP1;ratioP1;P1;durP2;ratioP2;P2;SDS_P1;SDS_P2;PMS_P1;PMS_P2;Temp;Humidity;BMP_temperature;BMP_pressure;BME280_temperature;BME280_humidity;BME280_pressure;Samples;Min_cycle;Max_cycle;Signal;HPM_P1;HPM_P2
2022/04/10 00:01:30;;;;;;;0.80;0.80;;;5.60;99.90;;;;;;5052471;28;20235;-67
2022/04/10 00:03:58;;;;;;;0.90;0.90;;;5.60;99.90;;;;;;5050744;28;20201;-67
2022/04/10 00:06:26;;;;;;;0.90;0.90;;;5.60;99.90;;;;;;5042689;28;20259;-68
2022/04/10 00:08:53;;;;;;;0.90;0.90;;;5.70;99.90;;;;;;5055165;28;20224;-68
2022/04/10 00:11:20;;;;;;;0.83;0.83;;;5.70;99.90;;;;;;5065470;28;20200;-67
2022/04/10 00:13:47;;;;;;;0.80;0.80;;;5.70;99.90;;;;;;5060879;28;20201;-67
2022/04/10 00:16:14;;;;;;;0.68;0.68;;;5.50;99.90;;;;;;5064205;28;20196;-69
2022/04/10 00:18:41;;;;;;;0.90;0.90;;;5.50;99.90;;;;;;5057128;28;20227;-68
2022/04/10 00:21:09;;;;;;;0.90;0.90;;;5.60;99.90;;;;;;5048217;28;20224;-68
2022/04/10 00:23:36;;;;;;;0.80;0.80;;;5.60;99.90;;;;;;5044140;28;20321;-68
2022/04/10 00:26:03;;;;;;;0.90;0.90;;;5.60;99.90;;;;;;5046697;28;20212;-67
2022/04/10 00:28:30;;;;;;;0.80;0.80;;;5.60;99.90;;;;;;5048365;28;20311;-67
2022/04/10 00:30:57;;;;;;;0.87;0.87;;;5.70;99.90;;;;;;5046651;28;20318;-69
2022/04/10 00:33:24;;;;;;;0.70;0.70;;;5.70;99.90;;;;;;5048589;28;20261;-68
2022/04/10 00:35:51;;;;;;;0.80;0.80;;;5.70;99.90;;;;;;5053331;28;20202;-66
2022/04/10 00:38:20;;;;;;;1.00;1.00;;;5.80;99.90;;;;;;5066904;28;20217;-69
2022/04/10 00:40:47;;;;;;;0.80;0.80;;;5.80;99.90;;;;;;5068778;28;20646;-68
2022/04/10 00:43:15;;;;;;;0.90;0.90;;;5.80;99.90;;;;;;5058403;28;20224;-70
2022/04/10 00:45:42;;;;;;;0.90;0.90;;;5.70;99.90;;;;;;5054878;28;20610;-67
2022/04/10 00:48:10;;;;;;;0.90;0.90;;;5.60;99.90;;;;;;5047265;28;20206;-68
2022/04/10 00:51:39;;;;;;;0.80;0.80;;;5.60;99.90;;;;;;5049157;28;20308;-67
2022/04/10 00:53:26;;;;;;;0.90;0.90;;;5.60;99.90;;;;;;5049990;28;20738;-68
2022/04/10 00:55:54;;;;;;;0.85;0.85;;;5.50;99.90;;;;;;5049918;28;20223;-68
2022/04/10 00:58:21;;;;;;;0.90;0.90;;;5.60;99.90;;;;;;5040400;28;20226;-69
2022/04/10 01:00:48;;;;;;;0.97;0.97;;;5.60;99.90;;;;;;5050113;28;20283;-67
2022/04/10 01:03:15;;;;;;;0.93;0.93;;;5.50;99.90;;;;;;5050638;28;20642;-68
2022/04/10 01:05:43;;;;;;;0.80;0.80;;;5.60;99.90;;;;;;5051240;28;20315;-66
2022/04/10 01:08:10;;;;;;;0.83;0.83;;;5.50;99.90;;;;;;5057627;28;20227;-67
2022/04/10 01:10:39;;;;;;;0.73;0.73;;;5.50;99.90;;;;;;5051299;28;20646;-67
2022/04/10 01:13:06;;;;;;;0.80;0.80;;;5.50;99.90;;;;;;5042861;28;20275;-68
2022/04/10 01:15:34;;;;;;;0.90;0.90;;;5.50;99.90;;;;;;5032445;28;20703;-67
2022/04/10 01:18:01;;;;;;;0.90;0.90;;;5.50;99.90;;;;;;5032764;28;20204;-67
2022/04/10 01:20:28;;;;;;;0.80;0.80;;;5.40;99.90;;;;;;5032482;28;20287;-66
2022/04/10 01:22:56;;;;;;;0.90;0.90;;;5.40;99.90;;;;;;5033023;28;20204;-68
2022/04/10 01:25:23;;;;;;;0.90;0.90;;;5.40;99.90;;;;;;5030990;28;20758;-68
2022/04/10 01:27:50;;;;;;;0.80;0.80;;;5.40;99.90;;;;;;5024079;28;20216;-67
2022/04/10 01:30:17;;;;;;;0.80;0.80;;;5.50;99.90;;;;;;5032336;28;20315;-67
2022/04/10 01:32:44;;;;;;;1.10;1.10;;;5.50;99.90;;;;;;5030716;28;20267;-69
2022/04/10 01:35:11;;;;;;;1.03;0.90;;;5.50;99.90;;;;;;5029597;28;20287;-67
2022/04/10 01:37:39;;;;;;;0.90;0.90;;;5.50;99.90;;;;;;5032434;28;20204;-68
2022/04/10 01:40:09;;;;;;;0.90;0.90;;;5.40;99.90;;;;;;5034379;28;20232;-68
2022/04/10 01:42:36;;;;;;;0.90;0.90;;;5.40;99.90;;;;;;5031067;28;20292;-68
2022/04/10 01:45:03;;;;;;;1.10;1.10;;;5.40;99.90;;;;;;5033036;28;20200;-69
2022/04/10 01:47:30;;;;;;;0.90;0.90;;;5.40;99.90;;;;;;5033612;28;20929;-68
2022/04/10 01:49:57;;;;;;;0.90;0.90;;;5.40;99.90;;;;;;5032869;28;20224;-67
2022/04/10 01:52:23;;;;;;;0.90;0.90;;;5.30;99.90;;;;;;5031290;28;20319;-69
2022/04/10 01:54:50;;;;;;;1.00;1.00;;;5.30;99.90;;;;;;5030643;28;20243;-68
2022/04/10 01:57:18;;;;;;;1.10;1.10;;;5.20;99.90;;;;;;5031665;28;20204;-68
2022/04/10 01:59:45;;;;;;;1.03;1.03;;;5.10;99.90;;;;;;5032160;28;20512;-68
2022/04/10 02:02:12;;;;;;;1.00;1.00;;;5.00;99.90;;;;;;5032140;28;20236;-67
2022/04/10 02:04:39;;;;;;;0.87;0.87;;;5.00;99.90;;;;;;5033230;28;20295;-66
2022/04/10 02:07:06;;;;;;;0.90;0.90;;;5.00;99.90;;;;;;5031383;28;20702;-68
2022/04/10 02:09:33;;;;;;;0.90;0.90;;;5.00;99.90;;;;;;5038947;28;20220;-67
2022/04/10 02:12:00;;;;;;;0.80;0.80;;;5.00;99.90;;;;;;5029727;28;20220;-70
2022/04/10 02:14:28;;;;;;;0.90;0.90;;;5.00;99.90;;;;;;5031219;28;20295;-69
2022/04/10 02:16:55;;;;;;;0.83;0.83;;;5.00;99.90;;;;;;5031146;28;20225;-67
2022/04/10 02:19:22;;;;;;;1.00;1.00;;;5.00;99.90;;;;;;5028430;28;20722;-67
2022/04/10 02:21:49;;;;;;;1.00;1.00;;;5.00;99.90;;;;;;5049266;23;20232;-64
2022/04/10 02:24:16;;;;;;;0.90;0.90;;;5.00;99.90;;;;;;5024632;28;20295;-65
2022/04/10 02:26:43;;;;;;;0.90;0.90;;;4.90;99.90;;;;;;5030339;28;20240;-65
2022/04/10 02:29:10;;;;;;;0.90;0.90;;;4.90;99.90;;;;;;5028757;28;20209;-66
2022/04/10 02:31:38;;;;;;;0.70;0.70;;;4.80;99.90;;;;;;5015865;28;20255;-65
2022/04/10 02:34:05;;;;;;;0.90;0.90;;;4.70;99.90;;;;;;5017394;28;20205;-64
2022/04/10 02:36:32;;;;;;;0.80;0.80;;;4.60;99.90;;;;;;5018463;28;20524;-65
2022/04/10 02:38:59;;;;;;;1.00;1.00;;;4.60;99.90;;;;;;5017475;28;20232;-66
2022/04/10 02:41:26;;;;;;;0.90;0.90;;;4.50;99.90;;;;;;5013081;28;20225;-66
2022/04/10 02:43:53;;;;;;;0.80;0.80;;;4.40;99.90;;;;;;5011443;28;20201;-65
2022/04/10 02:46:20;;;;;;;0.80;0.80;;;4.40;99.90;;;;;;5011265;28;20220;-66
2022/04/10 02:48:48;;;;;;;0.80;0.80;;;4.40;99.90;;;;;;5011679;28;20208;-65
2022/04/10 02:51:15;;;;;;;0.90;0.90;;;4.40;99.90;;;;;;5013207;28;20264;-64
2022/04/10 02:53:42;;;;;;;0.77;0.77;;;4.40;99.90;;;;;;5014691;28;20296;-67
2022/04/10 02:56:09;;;;;;;0.80;0.80;;;4.40;99.90;;;;;;5029679;28;20668;-65
2022/04/10 02:58:36;;;;;;;0.70;0.70;;;4.30;99.90;;;;;;5015325;28;20237;-66
2022/04/10 03:01:03;;;;;;;0.73;0.73;;;4.40;99.90;;;;;;5013129;28;20228;-65
2022/04/10 03:03:30;;;;;;;0.90;0.90;;;4.40;99.90;;;;;;5011914;28;20701;-65
2022/04/10 03:05:58;;;;;;;0.80;0.80;;;4.40;99.90;;;;;;5015936;28;20197;-66
2022/04/10 03:08:25;;;;;;;0.73;0.73;;;4.30;99.90;;;;;;5015394;28;20224;-65
2022/04/10 03:10:52;;;;;;;0.80;0.80;;;4.40;99.90;;;;;;5016491;28;20301;-66
2022/04/10 03:13:19;;;;;;;0.90;0.90;;;4.40;99.90;;;;;;5016600;28;20308;-66
2022/04/10 03:15:46;;;;;;;1.00;1.00;;;4.40;99.90;;;;;;5017380;28;20259;-66
2022/04/10 03:18:13;;;;;;;0.80;0.80;;;4.30;99.90;;;;;;5015442;28;20240;-64
2022/04/10 03:20:40;;;;;;;0.70;0.70;;;4.20;99.90;;;;;;5015940;28;20271;-64
2022/04/10 03:23:10;;;;;;;0.90;0.90;;;4.30;99.90;;;;;;5016254;28;20201;-66
2022/04/10 03:25:37;;;;;;;0.70;0.70;;;4.30;99.90;;;;;;5016267;28;20561;-66
2022/04/10 03:28:05;;;;;;;0.93;0.93;;;4.30;99.90;;;;;;5025848;28;20240;-64
2022/04/10 03:30:32;;;;;;;0.77;0.77;;;4.30;99.90;;;;;;5035497;28;20810;-64
2022/04/10 03:32:59;;;;;;;0.90;0.90;;;4.20;99.90;;;;;;5035597;28;20251;-65
2022/04/10 03:35:25;;;;;;;0.90;0.90;;;4.20;99.90;;;;;;5034620;28;20262;-64
2022/04/10 03:37:52;;;;;;;0.80;0.80;;;4.20;99.90;;;;;;5029519;28;20233;-64
2022/04/10 03:40:21;;;;;;;1.00;1.00;;;4.30;99.90;;;;;;5015405;28;20253;-65
2022/04/10 03:42:47;;;;;;;0.90;0.90;;;4.30;99.90;;;;;;5014672;28;20260;-65
2022/04/10 03:45:14;;;;;;;1.00;1.00;;;4.30;99.90;;;;;;5014767;28;20232;-66
2022/04/10 03:47:42;;;;;;;0.82;0.82;;;4.20;99.90;;;;;;5014440;28;20208;-66
2022/04/10 03:50:09;;;;;;;0.80;0.80;;;4.10;99.90;;;;;;5014558;28;20256;-65
2022/04/10 03:52:36;;;;;;;0.80;0.80;;;4.20;99.90;;;;;;5030379;28;20252;-65
2022/04/10 03:55:03;;;;;;;1.00;1.00;;;4.10;99.90;;;;;;5033769;28;20208;-66
2022/04/10 03:57:31;;;;;;;0.90;0.90;;;4.00;99.90;;;;;;5030561;28;20205;-64
2022/04/10 03:59:59;;;;;;;0.80;0.80;;;3.90;99.90;;;;;;5034430;28;20746;-65
2022/04/10 04:02:25;;;;;;;0.90;0.90;;;3.90;99.90;;;;;;5033861;28;20670;-66
2022/04/10 04:04:53;;;;;;;1.00;1.00;;;3.90;99.90;;;;;;5034304;28;20209;-64
2022/04/10 04:07:20;;;;;;;0.80;0.80;;;3.90;99.90;;;;;;5033893;28;20236;-65
2022/04/10 04:09:47;;;;;;;0.80;0.80;;;4.00;99.90;;;;;;5033711;28;20366;-66
2022/04/10 04:12:14;;;;;;;0.70;0.70;;;4.10;99.90;;;;;;5034320;28;20227;-64
2022/04/10 04:14:42;;;;;;;0.73;0.73;;;4.10;99.90;;;;;;5034046;28;20690;-65
2022/04/10 04:17:09;;;;;;;0.80;0.80;;;4.10;99.90;;;;;;5032545;28;20201;-65
2022/04/10 04:19:36;;;;;;;0.80;0.80;;;4.10;99.90;;;;;;5036951;28;20227;-64
2022/04/10 04:22:03;;;;;;;0.80;0.80;;;4.20;99.90;;;;;;5043160;28;20236;-65
2022/04/10 04:24:30;;;;;;;0.90;0.90;;;4.20;99.90;;;;;;5039672;28;20644;-65
2022/04/10 04:26:57;;;;;;;0.80;0.80;;;4.20;99.90;;;;;;5029141;28;20252;-66
2022/04/10 04:29:24;;;;;;;0.83;0.83;;;4.30;99.90;;;;;;5012990;28;20240;-66
2022/04/10 04:31:52;;;;;;;0.80;0.80;;;4.30;99.90;;;;;;5013781;28;20333;-66
2022/04/10 04:34:21;;;;;;;1.00;1.00;;;4.30;99.90;;;;;;5013972;28;20687;-65
2022/04/10 04:36:48;;;;;;;0.73;0.73;;;4.40;99.90;;;;;;5013097;28;20264;-64
2022/04/10 04:39:14;;;;;;;0.90;0.90;;;4.30;99.90;;;;;;5033679;28;20315;-66
2022/04/10 04:41:41;;;;;;;0.90;0.90;;;4.30;99.90;;;;;;5033251;28;20256;-66
2022/04/10 04:44:09;;;;;;;0.90;0.90;;;4.30;99.90;;;;;;5033675;28;20224;-65
2022/04/10 04:46:36;;;;;;;0.80;0.80;;;4.30;99.90;;;;;;5034649;28;20205;-66
2022/04/10 04:49:04;;;;;;;0.80;0.80;;;4.30;99.90;;;;;;5034575;28;20220;-67
2022/04/10 04:51:34;;;;;;;0.80;0.80;;;4.30;99.90;;;;;;5036282;28;20260;-65
2022/04/10 04:54:01;;;;;;;0.80;0.80;;;4.40;99.90;;;;;;5029851;28;20224;-67
2022/04/10 04:56:28;;;;;;;1.00;1.00;;;4.40;99.90;;;;;;5032218;28;20232;-65
2022/04/10 04:58:55;;;;;;;1.00;0.93;;;4.50;99.90;;;;;;5032696;28;20240;-64
2022/04/10 05:01:21;;;;;;;1.10;1.10;;;4.50;99.90;;;;;;5032934;28;20260;-65
2022/04/10 05:03:49;;;;;;;0.80;0.80;;;4.50;99.90;;;;;;5032678;28;20293;-65
2022/04/10 05:06:17;;;;;;;1.00;1.00;;;4.50;99.90;;;;;;5032365;28;20427;-65
2022/04/10 05:08:46;;;;;;;0.80;0.80;;;4.50;99.90;;;;;;5023107;28;20333;-64
2022/04/10 05:11:13;;;;;;;0.97;0.97;;;4.60;99.90;;;;;;5012794;28;20260;-66
2022/04/10 05:13:40;;;;;;;0.90;0.90;;;4.60;99.90;;;;;;5013849;28;20225;-64
2022/04/10 05:16:08;;;;;;;0.90;0.90;;;4.60;99.90;;;;;;5031205;28;20291;-65
2022/04/10 05:18:35;;;;;;;1.20;1.10;;;4.60;99.90;;;;;;5031844;28;20204;-66
2022/04/10 05:21:03;;;;;;;0.80;0.80;;;4.60;99.90;;;;;;5028841;28;20265;-66
2022/04/10 05:23:32;;;;;;;0.80;0.80;;;4.70;99.90;;;;;;5012195;28;20198;-65
2022/04/10 05:25:58;;;;;;;0.90;0.90;;;4.80;99.90;;;;;;5012828;28;20193;-67
2022/04/10 05:28:25;;;;;;;1.00;1.00;;;4.80;99.90;;;;;;5012422;28;20211;-66
2022/04/10 05:30:52;;;;;;;0.87;0.87;;;4.80;99.90;;;;;;5018455;28;20228;-66
2022/04/10 05:33:19;;;;;;;0.80;0.80;;;4.80;99.90;;;;;;5033770;28;20267;-64
2022/04/10 05:35:47;;;;;;;0.80;0.80;;;4.80;99.90;;;;;;5034421;28;20743;-64
2022/04/10 05:38:14;;;;;;;0.70;0.70;;;4.90;99.90;;;;;;5034141;28;20208;-63
2022/04/10 05:40:42;;;;;;;0.80;0.80;;;4.90;99.90;;;;;;5033488;28;20224;-66
2022/04/10 05:43:09;;;;;;;1.10;1.10;;;4.90;99.90;;;;;;5032765;28;20390;-65
2022/04/10 05:45:36;;;;;;;0.83;0.70;;;4.90;99.90;;;;;;5031468;28;20296;-65
2022/04/10 05:48:03;;;;;;;0.90;0.90;;;5.00;99.90;;;;;;5032253;28;20208;-64
2022/04/10 05:50:30;;;;;;;0.90;0.90;;;5.00;99.90;;;;;;5032155;28;20778;-66
2022/04/10 05:52:57;;;;;;;1.00;1.00;;;5.10;99.90;;;;;;5032866;28;20227;-64
2022/04/10 05:55:24;;;;;;;0.90;0.90;;;5.10;99.90;;;;;;5031621;28;20244;-63
2022/04/10 05:57:53;;;;;;;0.90;0.90;;;5.10;99.90;;;;;;5033526;28;20201;-64
2022/04/10 06:00:21;;;;;;;1.00;1.00;;;5.10;99.90;;;;;;5034982;28;20255;-68
2022/04/10 06:02:48;;;;;;;0.90;0.90;;;5.20;99.90;;;;;;5034365;28;20682;-64
2022/04/10 06:05:15;;;;;;;0.93;0.90;;;5.20;99.90;;;;;;5032410;28;20256;-64
2022/04/10 06:07:42;;;;;;;0.90;0.90;;;5.20;99.90;;;;;;5031713;28;20214;-66
2022/04/10 06:10:09;;;;;;;1.00;1.00;;;5.20;99.90;;;;;;5031905;28;20234;-64
2022/04/10 06:12:36;;;;;;;1.10;1.10;;;5.30;99.90;;;;;;5032601;28;20311;-66
2022/04/10 06:15:05;;;;;;;1.60;1.50;;;5.30;99.90;;;;;;5031233;28;20266;-64
2022/04/10 06:17:32;;;;;;;1.53;1.50;;;5.40;99.90;;;;;;5031052;28;20307;-64
2022/04/10 06:19:59;;;;;;;1.60;1.50;;;5.40;99.90;;;;;;5030611;28;20211;-64
2022/04/10 06:22:27;;;;;;;1.27;1.27;;;5.50;99.90;;;;;;5032440;28;20296;-65
2022/04/10 06:24:54;;;;;;;1.53;1.43;;;5.50;99.90;;;;;;5031754;28;20304;-64
2022/04/10 06:27:21;;;;;;;1.50;1.50;;;5.60;99.90;;;;;;5031775;28;20247;-64
2022/04/10 06:29:48;;;;;;;1.20;1.20;;;5.60;99.90;;;;;;5032782;28;20212;-63
2022/04/10 06:32:17;;;;;;;1.00;1.00;;;5.70;99.90;;;;;;5033063;28;20288;-65
2022/04/10 06:34:43;;;;;;;0.90;0.90;;;5.80;99.90;;;;;;5032489;28;20718;-65
2022/04/10 06:37:10;;;;;;;1.00;1.00;;;5.80;99.90;;;;;;5031069;28;20304;-63
2022/04/10 06:39:38;;;;;;;1.10;1.10;;;6.00;99.90;;;;;;5032725;28;20204;-65
2022/04/10 06:42:06;;;;;;;1.00;1.00;;;6.00;99.90;;;;;;5035015;28;20232;-64
2022/04/10 06:44:33;;;;;;;0.90;0.90;;;6.00;99.90;;;;;;5024073;28;20212;-66
2022/04/10 06:47:00;;;;;;;1.00;1.00;;;6.00;99.90;;;;;;5015541;28;20201;-65
2022/04/10 06:49:29;;;;;;;0.93;0.93;;;6.00;99.90;;;;;;5017745;28;20205;-64
2022/04/10 06:51:56;;;;;;;0.90;0.90;;;6.00;99.90;;;;;;5024725;28;20260;-64
2022/04/10 06:54:23;;;;;;;1.00;1.00;;;6.10;99.90;;;;;;5033401;28;20224;-64
2022/04/10 06:56:49;;;;;;;0.90;0.90;;;6.10;99.90;;;;;;5016245;28;20756;-64
2022/04/10 06:59:16;;;;;;;1.00;1.00;;;6.20;99.90;;;;;;5016175;28;20292;-63
2022/04/10 07:01:43;;;;;;;1.00;1.00;;;6.20;99.90;;;;;;5016685;28;20316;-65
2022/04/10 07:04:10;;;;;;;1.00;1.00;;;6.30;99.90;;;;;;5015809;28;20272;-65
2022/04/10 07:06:39;;;;;;;0.80;0.80;;;6.30;99.90;;;;;;5015265;28;20217;-65
2022/04/10 07:09:06;;;;;;;0.90;0.90;;;6.40;99.90;;;;;;5015491;28;20216;-65
2022/04/10 07:11:33;;;;;;;0.90;0.90;;;6.50;99.90;;;;;;5016115;28;20311;-65
2022/04/10 07:14:00;;;;;;;0.90;0.90;;;6.60;99.90;;;;;;5015865;28;20240;-64
2022/04/10 07:16:27;;;;;;;1.00;1.00;;;6.70;99.90;;;;;;5014542;28;20220;-65
2022/04/10 07:18:54;;;;;;;1.00;1.00;;;6.70;99.90;;;;;;5015151;28;20295;-64
2022/04/10 07:23:41;;;;;;;0.90;0.90;;;6.80;99.90;;;;;;5015368;28;20264;-65
2022/04/10 07:24:09;;;;;;;1.20;1.20;;;6.80;99.90;;;;;;5015137;28;20628;-65
2022/04/10 07:26:36;;;;;;;0.90;0.90;;;6.90;99.90;;;;;;5012642;28;20205;-64
2022/04/10 07:29:03;;;;;;;1.00;1.00;;;7.00;99.90;;;;;;5013360;28;20217;-64
2022/04/10 07:31:31;;;;;;;1.00;1.00;;;7.10;99.90;;;;;;5014730;28;20221;-64
2022/04/10 07:33:58;;;;;;;1.10;1.10;;;7.20;99.90;;;;;;5014745;28;20723;-64
2022/04/10 07:36:25;;;;;;;1.10;1.10;;;7.30;99.90;;;;;;5013452;28;20682;-64
2022/04/10 07:38:52;;;;;;;1.00;1.00;;;7.50;99.90;;;;;;5014319;28;20205;-63
2022/04/10 07:41:20;;;;;;;1.00;1.00;;;7.60;99.90;;;;;;5014406;28;20268;-64
2022/04/10 07:43:47;;;;;;;1.00;1.00;;;7.70;99.90;;;;;;5014353;28;20197;-63
2022/04/10 07:48:58;;;;;;;0.90;0.90;;;8.00;99.90;;;;;;5013586;28;20196;-64
2022/04/10 07:51:26;;;;;;;1.10;1.10;;;8.20;99.90;;;;;;5013947;28;20321;-64
2022/04/10 07:53:56;;;;;;;1.83;1.10;;;8.40;99.90;;;;;;5013980;28;20546;-63
2022/04/10 07:56:25;;;;;;;1.10;1.10;;;8.50;99.90;;;;;;5014694;28;20663;-64
2022/04/10 07:58:51;;;;;;;1.00;1.00;;;8.50;99.90;;;;;;5014766;28;20208;-64
2022/04/10 08:01:18;;;;;;;0.93;0.93;;;8.50;99.90;;;;;;5013988;28;20229;-64
2022/04/10 08:03:51;;;;;;;1.30;1.20;;;8.90;99.90;;;;;;5013970;28;20233;-63
2022/04/10 08:06:18;;;;;;;0.93;0.93;;;9.20;99.90;;;;;;5024464;28;20224;-63
2022/04/10 08:08:45;;;;;;;1.40;0.90;;;9.30;99.90;;;;;;5024115;28;20201;-65
2022/04/10 08:11:12;;;;;;;0.90;0.90;;;9.50;99.90;;;;;;5028781;28;20311;-63
2022/04/10 08:13:40;;;;;;;1.10;1.10;;;9.70;99.90;;;;;;5033084;28;20316;-65
2022/04/10 08:16:07;;;;;;;0.93;0.93;;;9.70;99.90;;;;;;5032721;28;20232;-66
2022/04/10 08:18:35;;;;;;;1.03;1.03;;;9.70;99.90;;;;;;5035708;28;20197;-64
2022/04/10 08:21:01;;;;;;;1.13;1.13;;;9.80;99.90;;;;;;5033351;28;20756;-65
2022/04/10 08:23:28;;;;;;;1.20;1.20;;;9.70;99.90;;;;;;5031493;28;20288;-65
2022/04/10 08:25:55;;;;;;;1.50;1.40;;;9.40;99.90;;;;;;5023736;28;20288;-63
2022/04/10 08:28:22;;;;;;;1.20;1.10;;;9.30;99.90;;;;;;5036599;28;20212;-65
2022/04/10 08:30:51;;;;;;;1.30;1.20;;;9.20;99.90;;;;;;5028758;28;20304;-64
2022/04/10 08:33:17;;;;;;;0.90;0.90;;;9.30;99.90;;;;;;5035022;28;20590;-65
2022/04/10 08:35:44;;;;;;;0.90;0.90;;;9.40;99.90;;;;;;5032538;28;20205;-64
2022/04/10 08:38:11;;;;;;;1.00;1.00;;;9.60;99.90;;;;;;5033721;28;20247;-64
2022/04/10 08:40:38;;;;;;;1.20;1.07;;;9.80;99.90;;;;;;5033088;28;20231;-64
2022/04/10 08:43:07;;;;;;;1.00;1.00;;;10.00;99.90;;;;;;5033859;28;20228;-62
2022/04/10 08:45:33;;;;;;;1.33;1.00;;;10.10;99.90;;;;;;5035571;28;20264;-60
2022/04/10 08:48:02;;;;;;;0.70;0.70;;;10.10;99.90;;;;;;5044230;28;20644;-61
2022/04/10 08:50:29;;;;;;;1.00;1.00;;;10.20;99.90;;;;;;5044561;28;20252;-64
2022/04/10 08:52:58;;;;;;;0.70;0.70;;;10.30;99.90;;;;;;5043458;28;20228;-64
2022/04/10 08:55:25;;;;;;;0.80;0.80;;;10.60;99.90;;;;;;5043344;28;20230;-66
2022/04/10 08:57:51;;;;;;;0.90;0.90;;;10.60;99.90;;;;;;5042604;28;20203;-64
2022/04/10 09:00:20;;;;;;;0.77;0.77;;;10.60;99.90;;;;;;5036746;28;20286;-63
2022/04/10 09:02:49;;;;;;;1.00;1.00;;;10.60;99.90;;;;;;5036028;28;20731;-65
2022/04/10 09:05:19;;;;;;;1.17;1.17;;;10.70;99.90;;;;;;5030659;28;20726;-64
2022/04/10 09:08:07;;;;;;;1.00;1.00;;;10.90;99.90;;;;;;5019586;28;20209;-64
2022/04/10 09:10:56;;;;;;;1.00;1.00;;;11.00;99.90;;;;;;5023225;28;20221;-65
2022/04/10 09:13:29;;;;;;;1.17;1.17;;;10.70;99.90;;;;;;5025661;28;20291;-65
2022/04/10 09:16:13;;;;;;;0.80;0.80;;;10.50;99.90;;;;;;5025963;28;20291;-64
2022/04/10 09:18:53;;;;;;;1.00;1.00;;;10.50;99.90;;;;;;5026575;28;20205;-64
2022/04/10 09:21:24;;;;;;;0.90;0.90;;;10.60;99.90;;;;;;5029266;28;20662;-65
2022/04/10 09:23:56;;;;;;;0.80;0.80;;;10.70;99.90;;;;;;5062223;22;20319;-64
2022/04/10 09:26:23;;;;;;;0.83;0.83;;;10.80;99.90;;;;;;5051303;28;20298;-63
2022/04/10 09:28:51;;;;;;;1.00;1.00;;;11.00;99.90;;;;;;5053101;28;20578;-63
2022/04/10 09:31:29;;;;;;;0.80;0.80;;;10.80;99.90;;;;;;5052289;28;20227;-65
2022/04/10 09:33:57;;;;;;;0.90;0.90;;;11.10;99.90;;;;;;5055272;28;20232;-65
2022/04/10 09:36:41;;;;;;;0.90;0.90;;;11.40;99.90;;;;;;5053842;28;20207;-63
2022/04/10 09:39:11;;;;;;;0.90;0.90;;;11.80;99.90;;;;;;5054943;28;20195;-65
2022/04/10 09:41:39;;;;;;;0.90;0.90;;;12.20;99.90;;;;;;5053011;28;20251;-63
2022/04/10 09:44:20;;;;;;;1.00;1.00;;;12.40;99.90;;;;;;5039128;28;20209;-66
2022/04/10 09:46:58;;;;;;;0.63;0.63;;;12.10;99.90;;;;;;5032698;28;20236;-65
2022/04/10 09:49:25;;;;;;;0.90;0.90;;;11.80;99.90;;;;;;5030268;28;20224;-63
2022/04/10 09:52:18;;;;;;;0.90;0.90;;;11.60;99.90;;;;;;5030031;28;20224;-64
2022/04/10 09:54:47;;;;;;;0.80;0.80;;;11.50;99.90;;;;;;5008887;28;20278;-65
2022/04/10 09:57:15;;;;;;;0.83;0.83;;;11.30;99.90;;;;;;5023407;28;20219;-63
2022/04/10 09:59:44;;;;;;;0.83;0.83;;;11.50;99.90;;;;;;5029163;28;20822;-66
2022/04/10 10:02:12;;;;;;;1.20;1.10;;;11.30;99.90;;;;;;5027775;28;20372;-63
2022/04/10 10:04:41;;;;;;;0.90;0.90;;;11.80;99.90;;;;;;5029348;28;20201;-66
2022/04/10 10:07:12;;;;;;;1.00;1.00;;;11.80;99.90;;;;;;5025947;28;20204;-63
2022/04/10 10:09:42;;;;;;;0.80;0.80;;;12.00;99.90;;;;;;5028606;28;20304;-66
2022/04/10 10:12:10;;;;;;;0.80;0.80;;;11.90;99.90;;;;;;5020185;28;20274;-64
2022/04/10 10:14:39;;;;;;;0.80;0.80;;;11.70;99.90;;;;;;5024209;28;20217;-66
2022/04/10 10:17:07;;;;;;;0.90;0.90;;;11.60;99.90;;;;;;5033473;28;20204;-65
2022/04/10 10:19:38;;;;;;;0.90;0.90;;;11.90;99.90;;;;;;5037133;28;20231;-64
2022/04/10 10:22:07;;;;;;;0.80;0.80;;;12.20;99.90;;;;;;5036582;28;20240;-64
2022/04/10 10:24:39;;;;;;;0.87;0.87;;;12.60;99.90;;;;;;5031662;28;20254;-64
2022/04/10 10:27:31;;;;;;;0.90;0.90;;;12.80;99.90;;;;;;5040230;28;20215;-64
2022/04/10 10:30:10;;;;;;;0.90;0.90;;;12.90;99.90;;;;;;5024713;28;20208;-65
2022/04/10 10:32:42;;;;;;;0.80;0.80;;;13.20;99.90;;;;;;5039518;28;20236;-64
2022/04/10 10:35:12;;;;;;;0.80;0.80;;;13.00;99.90;;;;;;5047099;28;20420;-63
2022/04/10 10:37:53;;;;;;;0.70;0.70;;;13.30;99.90;;;;;;5047305;28;20493;-65
2022/04/10 10:40:21;;;;;;;0.70;0.70;;;13.70;99.90;;;;;;5040210;28;20236;-65
2022/04/10 10:42:52;;;;;;;0.80;0.80;;;14.00;99.90;;;;;;5044614;28;20223;-65
2022/04/10 10:45:37;;;;;;;0.80;0.80;;;14.10;99.90;;;;;;5047838;28;20220;-64
2022/04/10 10:48:37;;;;;;;0.90;0.90;;;14.30;99.90;;;;;;5037945;28;20552;-65
2022/04/10 10:51:44;;;;;;;1.00;1.00;;;14.40;99.90;;;;;;5029945;28;20228;-65
2022/04/10 10:54:13;;;;;;;0.80;0.80;;;14.10;99.90;;;;;;5032819;28;20252;-65
2022/04/10 10:56:42;;;;;;;0.80;0.80;;;13.50;99.90;;;;;;5029600;28;20243;-65
2022/04/10 10:59:39;;;;;;;0.70;0.70;;;12.90;99.90;;;;;;5028554;28;20201;-64
2022/04/10 11:02:10;;;;;;;0.90;0.90;;;12.70;99.90;;;;;;4989939;28;20224;-66
2022/04/10 11:04:40;;;;;;;0.60;0.60;;;12.70;99.90;;;;;;5036058;28;20220;-65
2022/04/10 11:07:12;;;;;;;0.80;0.80;;;12.60;99.90;;;;;;5035526;28;20697;-66
2022/04/10 11:09:49;;;;;;;0.80;0.80;;;12.50;99.90;;;;;;5035545;28;20574;-64
2022/04/10 11:12:16;;;;;;;0.80;0.80;;;12.20;99.90;;;;;;5035837;28;20735;-64
2022/04/10 11:14:48;;;;;;;0.97;0.97;;;12.00;99.90;;;;;;5030852;28;20282;-64
2022/04/10 11:17:16;;;;;;;0.90;0.90;;;11.90;99.90;;;;;;5031845;28;20202;-65
2022/04/10 11:19:46;;;;;;;0.80;0.80;;;11.60;99.90;;;;;;5033009;28;20232;-66
2022/04/10 11:22:22;;;;;;;1.40;1.17;;;11.40;99.90;;;;;;5033644;28;20213;-65
2022/04/10 11:24:51;;;;;;;0.90;0.90;;;11.20;99.90;;;;;;5032797;28;20746;-65
2022/04/10 11:27:50;;;;;;;0.90;0.90;;;10.80;99.90;;;;;;5032869;28;20205;-64
2022/04/10 11:30:23;;;;;;;0.83;0.83;;;10.40;99.90;;;;;;5038393;28;20263;-65
2022/04/10 11:32:52;;;;;;;1.13;1.13;;;10.10;99.90;;;;;;5038308;28;20209;-69
2022/04/10 11:35:24;;;;;;;0.90;0.90;;;9.90;99.90;;;;;;5031089;28;20289;-66
2022/04/10 11:37:54;;;;;;;0.93;0.93;;;9.80;99.90;;;;;;5039677;28;20209;-66
2022/04/10 11:40:26;;;;;;;1.00;1.00;;;9.70;99.90;;;;;;5044947;28;20235;-64
2022/04/10 11:42:54;;;;;;;1.10;1.00;;;9.50;99.90;;;;;;5045638;28;20267;-65
2022/04/10 11:45:24;;;;;;;0.93;0.93;;;9.20;99.90;;;;;;5042052;28;20209;-64
2022/04/10 11:47:51;;;;;;;1.00;1.00;;;9.20;99.90;;;;;;5033376;28;20243;-64
2022/04/10 11:50:20;;;;;;;0.80;0.80;;;9.40;99.90;;;;;;5034717;28;20327;-65
2022/04/10 11:52:57;;;;;;;0.70;0.70;;;9.60;99.90;;;;;;5025342;28;20220;-65
2022/04/10 11:55:30;;;;;;;0.70;0.70;;;9.70;99.90;;;;;;5021530;28;20224;-64
2022/04/10 11:57:57;;;;;;;0.73;0.73;;;10.10;99.90;;;;;;5030313;28;20215;-64
2022/04/10 12:00:27;;;;;;;0.80;0.80;;;10.40;99.90;;;;;;5020041;28;20225;-65
2022/04/10 12:02:55;;;;;;;0.87;0.87;;;10.40;99.90;;;;;;5017989;28;20209;-64
2022/04/10 12:05:22;;;;;;;0.70;0.70;;;10.40;99.90;;;;;;5022549;28;20207;-65
2022/04/10 12:07:59;;;;;;;0.90;0.90;;;10.60;99.90;;;;;;5022079;28;20284;-65
2022/04/10 12:10:27;;;;;;;1.00;0.90;;;10.70;99.90;;;;;;5028980;28;20695;-64
2022/04/10 12:12:55;;;;;;;0.80;0.80;;;10.70;99.90;;;;;;5027449;28;20236;-64
2022/04/10 12:15:22;;;;;;;0.80;0.80;;;10.80;99.90;;;;;;5032256;28;20239;-66
2022/04/10 12:18:06;;;;;;;0.90;0.90;;;10.90;99.90;;;;;;5042741;22;20292;-66
2022/04/10 12:20:34;;;;;;;0.90;0.90;;;10.90;99.90;;;;;;5025633;28;20205;-67
2022/04/10 12:23:01;;;;;;;0.70;0.70;;;10.90;99.90;;;;;;5026218;28;20239;-67
2022/04/10 12:25:28;;;;;;;0.93;0.93;;;10.90;99.90;;;;;;5024486;28;20288;-67
2022/04/10 12:27:55;;;;;;;0.90;0.90;;;11.00;99.90;;;;;;5023222;28;20595;-67
2022/04/10 12:30:22;;;;;;;0.80;0.80;;;11.10;99.90;;;;;;5008890;28;20289;-68
2022/04/10 12:32:51;;;;;;;1.43;0.87;;;11.20;99.90;;;;;;5017839;28;20264;-68
2022/04/10 12:35:18;;;;;;;1.00;1.00;;;11.40;99.90;;;;;;5015406;28;20316;-68
2022/04/10 12:37:46;;;;;;;0.90;0.90;;;11.60;99.90;;;;;;5009795;28;20212;-66
2022/04/10 12:40:14;;;;;;;0.93;0.93;;;11.70;99.90;;;;;;5007551;28;20203;-67
2022/04/10 12:42:42;;;;;;;1.03;1.03;;;11.90;99.90;;;;;;5008563;28;20301;-67
2022/04/10 12:45:11;;;;;;;1.00;1.00;;;12.00;99.90;;;;;;5008219;28;20292;-68
2022/04/10 12:47:45;;;;;;;1.00;1.00;;;12.10;99.90;;;;;;5007362;28;20288;-68
2022/04/10 12:50:17;;;;;;;1.00;1.00;;;12.30;99.90;;;;;;5006167;28;20204;-68
2022/04/10 12:52:44;;;;;;;0.93;0.90;;;12.30;99.90;;;;;;5019035;28;20198;-68
2022/04/10 12:55:22;;;;;;;1.20;1.10;;;12.50;99.90;;;;;;5018942;28;20222;-67
2022/04/10 12:57:57;;;;;;;0.80;0.80;;;12.60;99.90;;;;;;5016466;28;20193;-67
2022/04/10 13:00:25;;;;;;;1.00;1.00;;;12.60;99.90;;;;;;5015249;28;20211;-68
2022/04/10 13:02:52;;;;;;;1.00;1.00;;;12.80;99.90;;;;;;5014031;28;20633;-68
2022/04/10 13:05:21;;;;;;;1.20;1.20;;;12.90;99.90;;;;;;5007968;28;20308;-67